createdAt,value
2022-10-30T00:01:21.020Z,4.03
2022-10-30T00:03:48.749Z,3.30
2022-10-30T00:06:15.097Z,2.25
2022-10-30T00:08:41.435Z,2.33
2022-10-30T00:11:13.300Z,3.08
2022-10-30T00:13:39.930Z,2.88
2022-10-30T00:16:08.000Z,2.33
2022-10-30T00:18:38.432Z,2.80
2022-10-30T00:21:06.045Z,3.03
2022-10-30T00:23:32.391Z,2.40
2022-10-30T00:26:02.151Z,2.88
2022-10-30T00:28:28.505Z,4.30
2022-10-30T00:30:54.844Z,2.65
2022-10-30T00:33:21.164Z,2.78
2022-10-30T00:38:14.343Z,2.95
2022-10-30T00:40:40.705Z,2.30
2022-10-30T00:43:26.881Z,2.42
2022-10-30T00:45:53.527Z,2.53
2022-10-30T00:48:24.086Z,2.90
2022-10-30T00:50:50.547Z,3.20
2022-10-30T00:53:18.587Z,2.28
2022-10-30T00:55:53.649Z,2.92
2022-10-30T00:58:22.226Z,3.25
2022-10-30T01:00:51.016Z,2.78
2022-10-30T01:03:18.461Z,3.58
2022-10-30T01:05:47.483Z,2.35
2022-10-30T01:08:13.910Z,3.08
2022-10-30T01:10:40.543Z,4.68
2022-10-30T01:13:07.043Z,2.38
2022-10-30T01:15:36.441Z,3.40
2022-10-30T01:18:21.508Z,3.05
2022-10-30T01:21:04.008Z,2.47
2022-10-30T01:23:56.387Z,3.15
2022-10-30T01:26:41.557Z,3.08
2022-10-30T01:29:20.031Z,3.25
2022-10-30T01:32:05.243Z,3.20
2022-10-30T01:34:37.872Z,3.00
2022-10-30T01:37:07.352Z,2.50
2022-10-30T01:39:35.717Z,3.22
2022-10-30T01:42:08.877Z,2.67
2022-10-30T01:44:35.450Z,4.95
2022-10-30T01:47:23.931Z,3.00
2022-10-30T01:49:50.264Z,2.65
2022-10-30T01:52:19.630Z,2.60
2022-10-30T01:55:15.481Z,2.88
2022-10-30T01:57:44.608Z,2.88
2022-10-30T02:00:13.500Z,4.10
2022-10-30T02:02:40.590Z,2.65
2022-10-30T02:05:08.156Z,2.53
2022-10-30T02:07:35.850Z,4.72
2022-10-30T02:10:02.305Z,2.75
2022-10-30T02:12:28.993Z,2.58
2022-10-30T02:14:57.754Z,2.83
2022-10-30T02:17:24.431Z,2.70
2022-10-30T02:19:50.762Z,2.80
2022-10-30T02:22:18.132Z,2.75
2022-10-30T02:24:44.835Z,2.38
2022-10-30T02:27:11.371Z,2.63
2022-10-30T02:29:37.714Z,4.60
2022-10-30T02:32:04.197Z,3.75
2022-10-30T02:34:31.689Z,3.22
2022-10-30T02:36:58.024Z,2.63
2022-10-30T02:39:24.392Z,2.50
2022-10-30T02:41:50.774Z,3.53
2022-10-30T02:44:17.146Z,4.53
2022-10-30T02:46:43.471Z,2.92
2022-10-30T02:49:09.805Z,2.45
2022-10-30T02:51:36.209Z,3.13
2022-10-30T02:54:02.653Z,2.78
2022-10-30T02:56:29.021Z,2.60
2022-10-30T02:58:56.348Z,2.20
2022-10-30T03:01:22.760Z,3.95
2022-10-30T03:03:49.309Z,3.03
2022-10-30T03:06:16.631Z,3.35
2022-10-30T03:08:43.581Z,2.45
2022-10-30T03:11:11.039Z,2.65
2022-10-30T03:13:38.053Z,3.70
2022-10-30T03:16:05.683Z,2.72
2022-10-30T03:18:32.694Z,2.50
2022-10-30T03:21:02.471Z,3.03
2022-10-30T03:23:28.938Z,2.22
2022-10-30T03:25:56.372Z,2.58
2022-10-30T03:28:23.186Z,3.83
2022-10-30T03:30:49.926Z,4.05
2022-10-30T03:33:16.766Z,2.92
2022-10-30T03:35:43.909Z,3.33
2022-10-30T03:38:10.556Z,3.20
2022-10-30T03:40:36.963Z,2.90
2022-10-30T03:43:03.352Z,3.20
2022-10-30T03:45:29.692Z,2.35
2022-10-30T03:47:56.302Z,4.07
2022-10-30T03:50:22.789Z,3.80
2022-10-30T03:52:49.104Z,2.70
2022-10-30T03:55:15.436Z,3.50
2022-10-30T03:57:41.790Z,3.05
2022-10-30T04:00:08.962Z,3.15
2022-10-30T04:02:35.303Z,3.15
2022-10-30T04:05:01.641Z,3.17
2022-10-30T04:07:27.980Z,3.45
2022-10-30T04:09:54.323Z,3.30
2022-10-30T04:12:20.812Z,3.10
2022-10-30T04:14:48.628Z,3.05
2022-10-30T04:17:14.998Z,4.68
2022-10-30T04:19:41.320Z,4.75
2022-10-30T04:22:07.713Z,3.55
2022-10-30T04:24:34.066Z,4.82
2022-10-30T04:27:00.368Z,3.30
2022-10-30T04:29:26.735Z,4.53
2022-10-30T04:31:53.159Z,3.20
2022-10-30T04:34:19.516Z,3.25
2022-10-30T04:36:45.842Z,2.88
2022-10-30T04:39:12.307Z,3.22
2022-10-30T04:41:38.686Z,3.42
2022-10-30T04:44:05.052Z,3.72
2022-10-30T04:46:31.867Z,3.47
2022-10-30T04:48:58.217Z,3.03
2022-10-30T04:51:24.710Z,4.60
2022-10-30T04:53:51.074Z,3.40
2022-10-30T04:56:17.415Z,3.65
2022-10-30T04:58:43.862Z,3.70
2022-10-30T05:01:10.269Z,3.47
2022-10-30T05:03:36.652Z,4.10
2022-10-30T05:06:07.276Z,4.10
2022-10-30T05:08:33.740Z,3.08
2022-10-30T05:11:03.818Z,2.80
2022-10-30T05:13:30.141Z,4.30
2022-10-30T05:15:56.631Z,3.40
2022-10-30T05:18:22.969Z,3.03
2022-10-30T05:20:49.303Z,3.42
2022-10-30T05:23:15.622Z,4.78
2022-10-30T05:25:41.975Z,2.90
2022-10-30T05:28:09.474Z,3.85
2022-10-30T05:30:36.123Z,3.53
2022-10-30T05:33:04.335Z,3.20
2022-10-30T05:35:32.706Z,3.10
2022-10-30T05:37:59.759Z,3.00
2022-10-30T05:40:26.151Z,3.10
2022-10-30T05:42:52.976Z,3.80
2022-10-30T05:45:19.691Z,3.30
2022-10-30T05:48:06.351Z,3.17
2022-10-30T05:50:33.124Z,2.65
2022-10-30T05:53:00.237Z,2.67
2022-10-30T05:55:27.104Z,2.85
2022-10-30T05:57:59.260Z,3.63
2022-10-30T06:00:26.936Z,3.40
2022-10-30T06:02:58.789Z,3.15
2022-10-30T06:05:25.301Z,2.80
2022-10-30T06:07:54.403Z,3.67
2022-10-30T06:10:20.728Z,3.30
2022-10-30T06:12:54.012Z,3.78
2022-10-30T06:15:20.672Z,3.30
2022-10-30T06:17:47.062Z,3.05
2022-10-30T06:20:13.458Z,3.88
2022-10-30T06:22:40.282Z,3.03
2022-10-30T06:25:06.888Z,3.55
2022-10-30T06:27:36.721Z,3.70
2022-10-30T06:30:03.520Z,3.22
2022-10-30T06:32:29.860Z,3.28
2022-10-30T06:34:56.185Z,3.45
2022-10-30T06:37:22.612Z,3.13
2022-10-30T06:39:49.281Z,3.47
2022-10-30T06:42:15.615Z,3.15
2022-10-30T06:44:41.948Z,3.15
2022-10-30T06:47:08.292Z,2.72
2022-10-30T06:49:34.684Z,3.50
2022-10-30T06:52:01.131Z,3.75
2022-10-30T06:54:27.471Z,4.28
2022-10-30T06:56:53.782Z,5.13
2022-10-30T06:59:20.134Z,3.85
2022-10-30T07:01:46.625Z,3.35
2022-10-30T07:04:13.088Z,4.38
2022-10-30T07:06:39.423Z,3.25
2022-10-30T07:09:05.826Z,3.20
2022-10-30T07:11:32.206Z,4.88
2022-10-30T07:13:58.666Z,3.72
2022-10-30T07:16:25.111Z,5.75
2022-10-30T07:18:51.484Z,4.25
2022-10-30T07:21:17.909Z,3.40
2022-10-30T07:23:44.286Z,4.18
2022-10-30T07:26:10.628Z,4.50
2022-10-30T07:28:37.030Z,3.72
2022-10-30T07:31:05.852Z,3.72
2022-10-30T07:33:32.192Z,4.55
2022-10-30T07:36:01.569Z,3.97
2022-10-30T07:38:27.905Z,4.05
2022-10-30T07:40:54.581Z,3.90
2022-10-30T07:43:20.913Z,3.92
2022-10-30T07:45:50.055Z,3.15
2022-10-30T07:48:19.185Z,3.05
2022-10-30T07:50:45.513Z,3.97
2022-10-30T07:53:12.018Z,4.07
2022-10-30T07:55:38.382Z,3.97
2022-10-30T07:58:04.811Z,4.05
2022-10-30T08:00:31.236Z,3.33
2022-10-30T08:02:58.650Z,3.92
2022-10-30T08:05:28.874Z,3.72
2022-10-30T08:07:56.866Z,4.00
2022-10-30T08:10:23.793Z,4.03
2022-10-30T08:12:50.182Z,4.18
2022-10-30T08:15:16.567Z,3.65
2022-10-30T08:17:44.213Z,3.40
2022-10-30T08:20:11.579Z,5.05
2022-10-30T08:22:50.960Z,4.85
2022-10-30T08:25:18.755Z,3.55
2022-10-30T08:27:52.408Z,4.32
2022-10-30T08:30:18.937Z,4.13
2022-10-30T08:32:45.353Z,4.00
2022-10-30T08:35:12.622Z,4.18
2022-10-30T08:37:42.320Z,4.07
2022-10-30T08:40:09.899Z,3.33
2022-10-30T08:42:36.341Z,4.55
2022-10-30T08:45:02.703Z,4.93
2022-10-30T08:47:29.080Z,4.13
2022-10-30T08:49:55.428Z,4.50
2022-10-30T08:52:21.897Z,4.47
2022-10-30T08:54:48.321Z,3.92
2022-10-30T08:57:14.821Z,4.47
2022-10-30T08:59:41.224Z,6.22
2022-10-30T09:02:08.397Z,4.97
2022-10-30T09:04:34.790Z,4.85
2022-10-30T09:07:01.797Z,4.78
2022-10-30T09:09:28.251Z,4.97
2022-10-30T09:11:54.614Z,5.18
2022-10-30T09:14:20.927Z,6.28
2022-10-30T09:16:47.317Z,5.50
2022-10-30T09:19:18.444Z,5.55
2022-10-30T09:21:45.179Z,4.10
2022-10-30T09:24:11.528Z,4.78
2022-10-30T09:26:37.915Z,5.65
2022-10-30T09:29:04.262Z,4.00
2022-10-30T09:31:30.619Z,4.05
2022-10-30T09:33:56.987Z,4.40
2022-10-30T09:36:23.367Z,3.78
2022-10-30T09:38:49.726Z,5.07
2022-10-30T09:41:34.782Z,4.38
2022-10-30T09:44:01.121Z,3.65
2022-10-30T09:46:33.607Z,3.88
2022-10-30T09:49:26.682Z,3.40
2022-10-30T09:52:02.765Z,3.90
2022-10-30T09:54:38.495Z,4.80
2022-10-30T09:57:10.136Z,3.85
2022-10-30T09:59:36.439Z,4.40
2022-10-30T10:02:38.589Z,3.92
2022-10-30T10:05:04.996Z,3.63
2022-10-30T10:07:33.743Z,3.78
2022-10-30T10:10:03.175Z,3.83
2022-10-30T10:12:32.574Z,3.92
2022-10-30T10:15:00.671Z,3.97
2022-10-30T10:17:39.202Z,5.30
2022-10-30T10:20:09.279Z,3.38
2022-10-30T10:22:45.944Z,5.47
2022-10-30T10:25:14.654Z,3.55
2022-10-30T10:27:40.965Z,14.35
2022-10-30T10:30:16.555Z,5.90
2022-10-30T10:32:42.847Z,4.72
2022-10-30T10:35:18.459Z,3.30
2022-10-30T10:37:49.422Z,7.13
2022-10-30T10:43:00.860Z,4.47
2022-10-30T10:45:39.821Z,7.53
2022-10-30T10:48:16.289Z,4.03
2022-10-30T10:50:48.600Z,5.35
2022-10-30T10:53:18.351Z,3.92
2022-10-30T10:55:46.468Z,3.80
2022-10-30T10:58:33.593Z,3.85
2022-10-30T11:01:00.020Z,3.53
2022-10-30T11:03:26.484Z,3.65
2022-10-30T11:05:55.362Z,3.83
2022-10-30T11:08:28.847Z,3.80
2022-10-30T11:11:02.769Z,4.38
2022-10-30T11:13:31.074Z,4.70
2022-10-30T11:16:14.467Z,4.47
2022-10-30T11:18:42.038Z,5.80
2022-10-30T11:21:19.580Z,6.07
2022-10-30T11:23:47.044Z,4.30
2022-10-30T11:26:39.860Z,4.28
2022-10-30T11:29:11.658Z,4.32
2022-10-30T11:31:42.275Z,4.82
2022-10-30T11:34:17.845Z,3.38
2022-10-30T11:36:44.879Z,3.53
2022-10-30T11:39:31.669Z,3.70
2022-10-30T11:42:04.035Z,3.25
2022-10-30T11:44:30.409Z,3.53
2022-10-30T11:46:57.208Z,4.13
2022-10-30T11:50:00.974Z,4.05
2022-10-30T11:52:27.844Z,3.55
2022-10-30T11:55:01.268Z,3.90
2022-10-30T11:57:27.583Z,3.20
2022-10-30T11:59:54.959Z,4.35
2022-10-30T12:02:22.967Z,3.85
2022-10-30T12:04:50.568Z,3.55
2022-10-30T12:07:24.310Z,3.15
2022-10-30T12:09:50.710Z,3.17
2022-10-30T12:12:22.484Z,3.38
2022-10-30T12:14:52.144Z,3.33
2022-10-30T12:17:19.162Z,2.83
2022-10-30T12:19:50.374Z,2.80
2022-10-30T12:22:28.054Z,2.60
2022-10-30T12:24:54.498Z,2.95
2022-10-30T12:27:22.520Z,3.30
2022-10-30T12:30:14.730Z,3.30
2022-10-30T12:32:47.551Z,4.13
2022-10-30T12:35:20.343Z,4.00
2022-10-30T12:37:48.402Z,3.55
2022-10-30T12:40:37.458Z,4.05
2022-10-30T12:43:16.778Z,2.85
2022-10-30T12:45:44.583Z,3.42
2022-10-30T12:48:29.256Z,3.47
2022-10-30T12:53:59.461Z,3.72
2022-10-30T12:56:33.839Z,3.63
2022-10-30T12:59:09.300Z,3.55
2022-10-30T13:01:38.410Z,3.65
2022-10-30T13:04:08.081Z,3.25
2022-10-30T13:06:42.630Z,3.42
2022-10-30T13:09:08.964Z,3.75
2022-10-30T13:11:35.276Z,3.85
2022-10-30T13:14:02.141Z,3.33
2022-10-30T13:16:30.066Z,3.17
2022-10-30T13:18:57.780Z,3.67
2022-10-30T13:21:32.239Z,4.05
2022-10-30T13:24:01.483Z,4.82
2022-10-30T13:26:33.111Z,2.75
2022-10-30T13:29:03.407Z,3.05
2022-10-30T13:31:32.800Z,3.17
2022-10-30T13:34:12.058Z,2.70
2022-10-30T13:36:48.504Z,3.28
2022-10-30T13:39:14.892Z,3.08
2022-10-30T13:42:00.018Z,2.45
2022-10-30T13:44:34.770Z,3.75
2022-10-30T13:47:19.933Z,2.42
2022-10-30T13:49:55.508Z,2.42
2022-10-30T13:52:22.872Z,3.22
2022-10-30T13:55:11.028Z,2.67
2022-10-30T13:57:42.133Z,2.42
2022-10-30T14:00:12.880Z,2.58
2022-10-30T14:05:14.548Z,2.92
2022-10-30T14:08:13.273Z,1.77
2022-10-30T14:10:53.364Z,2.47
2022-10-30T14:13:26.816Z,2.15
2022-10-30T14:18:24.576Z,1.83
2022-10-30T14:20:56.665Z,2.13
2022-10-30T14:23:24.656Z,2.28
2022-10-30T14:26:05.892Z,2.80
2022-10-30T14:28:36.400Z,2.10
2022-10-30T14:31:13.052Z,2.40
2022-10-30T14:33:46.567Z,2.15
2022-10-30T14:36:13.065Z,1.92
2022-10-30T14:38:39.414Z,2.22
2022-10-30T14:41:35.117Z,2.38
2022-10-30T14:44:19.904Z,2.40
2022-10-30T14:47:05.164Z,2.03
2022-10-30T14:49:31.458Z,2.28
2022-10-30T14:52:06.900Z,2.67
2022-10-30T14:54:59.749Z,2.33
2022-10-30T14:57:48.236Z,2.20
2022-10-30T15:00:24.098Z,2.60
2022-10-30T15:03:09.281Z,2.42
2022-10-30T15:05:48.581Z,2.72
2022-10-30T15:08:18.013Z,2.55
2022-10-30T15:10:51.505Z,2.33
2022-10-30T15:13:19.426Z,2.10
2022-10-30T15:15:46.489Z,2.10
2022-10-30T15:18:20.241Z,2.20
2022-10-30T15:20:50.715Z,2.63
2022-10-30T15:23:29.905Z,2.70
2022-10-30T15:25:59.074Z,3.30
2022-10-30T15:28:28.053Z,2.30
2022-10-30T15:31:10.254Z,2.10
2022-10-30T15:33:38.082Z,2.63
2022-10-30T15:36:05.035Z,2.55
2022-10-30T15:38:31.394Z,4.03
2022-10-30T15:40:59.011Z,2.50
2022-10-30T15:43:29.344Z,3.17
2022-10-30T15:45:55.897Z,2.88
2022-10-30T15:48:22.269Z,1.90
2022-10-30T15:50:58.812Z,2.53
2022-10-30T15:53:26.278Z,2.35
2022-10-30T15:55:52.639Z,2.35
2022-10-30T15:58:23.276Z,2.33
2022-10-30T16:00:57.258Z,2.78
2022-10-30T16:03:23.761Z,2.17
2022-10-30T16:05:50.361Z,2.97
2022-10-30T16:08:20.862Z,2.22
2022-10-30T16:10:47.662Z,2.72
2022-10-30T16:13:18.473Z,2.50
2022-10-30T16:15:48.188Z,2.95
2022-10-30T16:18:20.357Z,2.70
2022-10-30T16:20:51.789Z,2.58
2022-10-30T16:23:20.054Z,3.47
2022-10-30T16:25:47.630Z,3.10
2022-10-30T16:28:35.606Z,3.15
2022-10-30T16:31:06.330Z,2.60
2022-10-30T16:33:34.006Z,3.35
2022-10-30T16:36:02.183Z,2.83
2022-10-30T16:38:33.015Z,3.05
2022-10-30T16:40:59.530Z,2.97
2022-10-30T16:43:30.212Z,3.78
2022-10-30T16:46:16.519Z,2.63
2022-10-30T16:48:47.913Z,3.67
2022-10-30T16:51:15.797Z,3.15
2022-10-30T16:53:46.792Z,2.72
2022-10-30T16:58:39.425Z,2.97
2022-10-30T17:01:06.769Z,2.60
2022-10-30T17:03:36.294Z,2.38
2022-10-30T17:06:04.323Z,2.40
2022-10-30T17:08:35.696Z,2.78
2022-10-30T17:11:02.041Z,2.95
2022-10-30T17:13:34.520Z,2.58
2022-10-30T17:16:20.368Z,2.58
2022-10-30T17:18:51.311Z,2.78
2022-10-30T17:21:20.063Z,3.03
2022-10-30T17:23:46.547Z,3.28
2022-10-30T17:26:13.401Z,3.13
2022-10-30T17:28:40.345Z,2.97
2022-10-30T17:31:18.976Z,4.10
2022-10-30T17:33:45.879Z,2.92
2022-10-30T17:36:12.316Z,3.28
2022-10-30T17:38:40.965Z,3.15
2022-10-30T17:41:08.339Z,3.25
2022-10-30T17:43:35.581Z,5.07
2022-10-30T17:46:01.893Z,3.15
2022-10-30T17:48:28.881Z,3.58
2022-10-30T17:50:55.792Z,3.60
2022-10-30T17:53:23.014Z,3.53
2022-10-30T17:55:55.918Z,2.60
2022-10-30T17:58:23.207Z,3.70
2022-10-30T18:00:49.564Z,2.97
2022-10-30T18:03:15.961Z,3.83
2022-10-30T18:05:42.476Z,2.97
2022-10-30T18:08:08.827Z,3.78
2022-10-30T18:10:35.308Z,3.70
2022-10-30T18:13:03.941Z,3.90
2022-10-30T18:15:34.119Z,3.20
2022-10-30T18:18:00.541Z,3.20
2022-10-30T18:20:27.057Z,3.28
2022-10-30T18:22:54.186Z,3.20
2022-10-30T18:25:23.434Z,3.42
2022-10-30T18:27:50.030Z,3.65
2022-10-30T18:30:16.677Z,3.08
2022-10-30T18:32:43.185Z,3.40
2022-10-30T18:35:13.941Z,2.92
2022-10-30T18:37:40.284Z,3.05
2022-10-30T18:40:06.866Z,2.95
2022-10-30T18:42:33.271Z,2.85
2022-10-30T18:44:59.623Z,3.10
2022-10-30T18:47:27.411Z,3.00
2022-10-30T18:49:56.575Z,3.05
2022-10-30T18:52:22.937Z,3.20
2022-10-30T18:54:49.300Z,4.15
2022-10-30T18:57:15.633Z,4.43
2022-10-30T18:59:42.028Z,3.90
2022-10-30T19:02:19.452Z,6.63
2022-10-30T19:04:45.776Z,3.88
2022-10-30T19:07:12.133Z,3.47
2022-10-30T19:09:38.498Z,3.60
2022-10-30T19:12:04.984Z,5.15
2022-10-30T19:14:31.411Z,4.40
2022-10-30T19:16:57.734Z,3.55
2022-10-30T19:19:24.110Z,3.60
2022-10-30T19:21:53.492Z,4.05
2022-10-30T19:24:20.017Z,3.88
2022-10-30T19:26:46.367Z,3.75
2022-10-30T19:29:12.696Z,3.05
2022-10-30T19:31:39.091Z,3.45
2022-10-30T19:34:05.415Z,5.05
2022-10-30T19:36:33.922Z,4.60
2022-10-30T19:39:08.830Z,3.30
2022-10-30T19:41:35.879Z,7.95
2022-10-30T19:44:02.243Z,8.75
2022-10-30T19:46:28.547Z,4.30
2022-10-30T19:48:57.817Z,4.47
2022-10-30T19:51:25.333Z,4.55
2022-10-30T19:53:53.507Z,5.15
2022-10-30T19:56:20.169Z,4.95
2022-10-30T19:58:46.535Z,6.20
2022-10-30T20:01:13.063Z,6.10
2022-10-30T20:03:39.496Z,4.25
2022-10-30T20:06:06.068Z,4.78
2022-10-30T20:08:32.482Z,4.60
2022-10-30T20:11:02.113Z,4.60
2022-10-30T20:13:28.886Z,5.70
2022-10-30T20:15:56.604Z,5.35
2022-10-30T20:18:24.204Z,5.50
2022-10-30T20:20:51.880Z,5.03
2022-10-30T20:23:20.227Z,5.43
2022-10-30T20:25:47.233Z,4.63
2022-10-30T20:28:22.786Z,4.05
2022-10-30T20:30:50.284Z,4.10
2022-10-30T20:33:16.705Z,4.85
2022-10-30T20:35:43.176Z,5.05
2022-10-30T20:38:14.536Z,5.22
2022-10-30T20:40:40.864Z,4.55
2022-10-30T20:43:10.107Z,4.55
2022-10-30T20:45:36.489Z,5.25
2022-10-30T20:48:03.069Z,5.65
2022-10-30T20:50:29.483Z,5.22
2022-10-30T20:52:56.340Z,7.80
2022-10-30T20:55:22.699Z,5.97
2022-10-30T20:57:52.219Z,6.30
2022-10-30T21:00:18.904Z,5.43
2022-10-30T21:02:45.219Z,6.80
2022-10-30T21:05:30.208Z,7.18
2022-10-30T21:07:58.327Z,9.55
2022-10-30T21:10:30.214Z,7.05
2022-10-30T21:12:58.880Z,7.13
2022-10-30T21:15:27.451Z,8.65
2022-10-30T21:17:57.307Z,9.60
2022-10-30T21:20:24.077Z,9.45
2022-10-30T21:22:51.141Z,9.50
2022-10-30T21:25:17.487Z,9.43
2022-10-30T21:30:18.180Z,10.48
2022-10-30T21:32:44.532Z,9.90
2022-10-30T21:35:10.892Z,9.90
2022-10-30T21:37:37.329Z,10.15
2022-10-30T21:40:03.833Z,10.07
2022-10-30T21:42:30.182Z,11.32
2022-10-30T21:44:56.537Z,10.68
2022-10-30T21:47:22.859Z,12.55
2022-10-30T21:49:49.192Z,10.77
2022-10-30T21:52:15.554Z,11.30
2022-10-30T21:54:41.884Z,11.85
2022-10-30T21:57:08.340Z,11.73
2022-10-30T21:59:34.691Z,11.32
2022-10-30T22:02:01.121Z,12.18
2022-10-30T22:04:27.484Z,11.48
2022-10-30T22:06:53.797Z,12.40
2022-10-30T22:09:20.171Z,12.35
2022-10-30T22:11:46.488Z,12.63
2022-10-30T22:14:12.823Z,12.15
2022-10-30T22:16:42.099Z,11.98
2022-10-30T22:19:10.141Z,12.57
2022-10-30T22:21:36.558Z,11.75
2022-10-30T22:24:03.537Z,10.60
2022-10-30T22:26:30.291Z,12.38
2022-10-30T22:28:57.788Z,12.40
2022-10-30T22:31:24.982Z,11.50
2022-10-30T22:33:53.592Z,12.00
2022-10-30T22:36:21.643Z,11.25
2022-10-30T22:38:52.873Z,11.95
2022-10-30T22:41:20.758Z,11.02
2022-10-30T22:43:47.874Z,13.20
2022-10-30T22:46:15.469Z,12.20
2022-10-30T22:48:42.012Z,12.00
2022-10-30T22:51:13.555Z,12.18
2022-10-30T22:53:43.088Z,11.82
2022-10-30T22:56:19.636Z,11.15
2022-10-30T22:58:46.833Z,12.00
2022-10-30T23:01:15.553Z,12.20
2022-10-30T23:03:42.024Z,13.20
2022-10-30T23:06:08.575Z,13.25
2022-10-30T23:08:35.101Z,12.60
2022-10-30T23:11:01.502Z,11.48
2022-10-30T23:13:27.950Z,11.80
2022-10-30T23:15:56.293Z,12.40
2022-10-30T23:18:25.370Z,11.52
2022-10-30T23:20:51.746Z,11.73
2022-10-30T23:23:18.111Z,12.07
2022-10-30T23:25:44.489Z,12.18
2022-10-30T23:28:11.572Z,10.73
2022-10-30T23:30:41.363Z,12.02
2022-10-30T23:33:07.825Z,13.23
2022-10-30T23:35:34.209Z,11.55
2022-10-30T23:38:00.564Z,12.05
2022-10-30T23:40:26.935Z,11.93
2022-10-30T23:42:56.617Z,10.90
2022-10-30T23:45:23.187Z,11.43
2022-10-30T23:47:49.663Z,11.18
2022-10-30T23:50:16.371Z,12.20
2022-10-30T23:52:42.696Z,11.80
2022-10-30T23:55:09.288Z,11.43
2022-10-30T23:57:35.664Z,11.50
